sensor_id;sensor_type;location;lat;lon;timestamp;pressure;altitude;pressure_sealevel;temperature;humidity
8334;BME280;4204;43.004;23.052;2024-02-21T00:00:34;94468.59;;;4.42;80.47
8334;BME280;4204;43.004;23.052;2024-02-21T00:02:59;94465.09;;;4.43;81.17
8334;BME280;4204;43.004;23.052;2024-02-21T00:05:27;94473.13;;;4.49;81.28
8334;BME280;4204;43.004;23.052;2024-02-21T00:07:52;94477.94;;;4.52;80.48
8334;BME280;4204;43.004;23.052;2024-02-21T00:10:18;94477.94;;;4.52;80.87
8334;BME280;4204;43.004;23.052;2024-02-21T00:12:43;94477.34;;;4.58;80.61
8334;BME280;4204;43.004;23.052;2024-02-21T00:15:09;94463.28;;;4.54;79.91
8334;BME280;4204;43.004;23.052;2024-02-21T00:17:35;94469.38;;;4.61;80.72
8334;BME280;4204;43.004;23.052;2024-02-21T00:20:00;94459.13;;;4.53;80.73
8334;BME280;4204;43.004;23.052;2024-02-21T00:22:25;94475.28;;;4.61;80.81
8334;BME280;4204;43.004;23.052;2024-02-21T00:24:54;94470.47;;;4.58;80.71
8334;BME280;4204;43.004;23.052;2024-02-21T00:27:19;94468.88;;;4.57;81.59
8334;BME280;4204;43.004;23.052;2024-02-21T00:29:45;94467.94;;;4.40;81.99
8334;BME280;4204;43.004;23.052;2024-02-21T00:32:10;94464.75;;;4.38;81.38
8334;BME280;4204;43.004;23.052;2024-02-21T00:34:36;94460.44;;;4.39;82.49
8334;BME280;4204;43.004;23.052;2024-02-21T00:37:01;94459.13;;;4.35;82.78
8334;BME280;4204;43.004;23.052;2024-02-21T00:39:27;94462.19;;;4.38;82.04
8334;BME280;4204;43.004;23.052;2024-02-21T00:41:52;94452.13;;;4.37;81.71
8334;BME280;4204;43.004;23.052;2024-02-21T00:44:18;94454.69;;;4.37;81.97
8334;BME280;4204;43.004;23.052;2024-02-21T00:46:43;94450.88;;;4.41;81.57
8334;BME280;4204;43.004;23.052;2024-02-21T00:49:09;94450.88;;;4.41;81.07
8334;BME280;4204;43.004;23.052;2024-02-21T00:51:34;94460.78;;;4.44;81.72
8334;BME280;4204;43.004;23.052;2024-02-21T00:54:00;94450.16;;;4.49;81.34
8334;BME280;4204;43.004;23.052;2024-02-21T00:56:26;94447.06;;;4.45;80.45
8334;BME280;4204;43.004;23.052;2024-02-21T00:58:52;94438.28;;;4.39;81.16
8334;BME280;4204;43.004;23.052;2024-02-21T01:01:24;94445.47;;;4.44;81.36
8334;BME280;4204;43.004;23.052;2024-02-21T01:03:50;94429.75;;;4.31;81.06
8334;BME280;4204;43.004;23.052;2024-02-21T01:06:16;94437.81;;;4.18;82.19
8334;BME280;4204;43.004;23.052;2024-02-21T01:08:41;94436.00;;;4.10;82.60
8334;BME280;4204;43.004;23.052;2024-02-21T01:11:07;94439.50;;;4.09;83.05
8334;BME280;4204;43.004;23.052;2024-02-21T01:13:32;94442.81;;;4.02;83.95
8334;BME280;4204;43.004;23.052;2024-02-21T01:15:58;94436.75;;;4.03;84.32
8334;BME280;4204;43.004;23.052;2024-02-21T01:18:23;94424.25;;;3.92;84.20
8334;BME280;4204;43.004;23.052;2024-02-21T01:20:48;94434.94;;;3.95;84.63
8334;BME280;4204;43.004;23.052;2024-02-21T01:23:14;94435.44;;;3.99;84.19
8334;BME280;4204;43.004;23.052;2024-02-21T01:25:39;94425.84;;;3.93;83.65
8334;BME280;4204;43.004;23.052;2024-02-21T01:28:05;94434.00;;;3.96;83.60
8334;BME280;4204;43.004;23.052;2024-02-21T01:30:30;94439.00;;;4.06;84.42
8334;BME280;4204;43.004;23.052;2024-02-21T01:32:55;94436.00;;;4.10;83.26
8334;BME280;4204;43.004;23.052;2024-02-21T01:35:21;94429.66;;;4.14;83.95
8334;BME280;4204;43.004;23.052;2024-02-21T01:37:46;94430.59;;;4.13;83.05
8334;BME280;4204;43.004;23.052;2024-02-21T01:40:12;94432.72;;;4.18;82.87
8334;BME280;4204;43.004;23.052;2024-02-21T01:42:38;94421.84;;;4.16;83.55
8334;BME280;4204;43.004;23.052;2024-02-21T01:45:06;94428.56;;;4.17;83.97
8334;BME280;4204;43.004;23.052;2024-02-21T01:47:31;94413.19;;;4.09;83.75
8334;BME280;4204;43.004;23.052;2024-02-21T01:49:57;94416.69;;;4.08;83.83
8334;BME280;4204;43.004;23.052;2024-02-21T01:52:22;94414.50;;;4.13;84.19
8334;BME280;4204;43.004;23.052;2024-02-21T01:54:48;94422.66;;;4.17;83.40
8334;BME280;4204;43.004;23.052;2024-02-21T01:57:14;94416.97;;;4.23;83.25
8334;BME280;4204;43.004;23.052;2024-02-21T01:59:40;94407.91;;;4.28;83.42
8334;BME280;4204;43.004;23.052;2024-02-21T02:02:05;94404.09;;;4.32;82.14
8334;BME280;4204;43.004;23.052;2024-02-21T02:04:31;94395.47;;;4.33;82.38
8334;BME280;4204;43.004;23.052;2024-02-21T02:07:00;94399.34;;;4.37;81.89
8334;BME280;4204;43.004;23.052;2024-02-21T02:09:27;94401.59;;;4.40;82.48
8334;BME280;4204;43.004;23.052;2024-02-21T02:11:53;94402.22;;;4.42;81.45
8334;BME280;4204;43.004;23.052;2024-02-21T02:14:18;94409.75;;;4.44;82.16
8334;BME280;4204;43.004;23.052;2024-02-21T02:16:46;94389.16;;;4.45;81.42
8334;BME280;4204;43.004;23.052;2024-02-21T02:19:13;94391.44;;;4.49;80.91
8334;BME280;4204;43.004;23.052;2024-02-21T02:21:43;94386.03;;;4.52;81.16
8334;BME280;4204;43.004;23.052;2024-02-21T02:24:11;94385.09;;;4.53;80.64
8334;BME280;4204;43.004;23.052;2024-02-21T02:26:39;94373.75;;;4.55;81.29
8334;BME280;4204;43.004;23.052;2024-02-21T02:29:05;94379.19;;;4.52;81.13
8334;BME280;4204;43.004;23.052;2024-02-21T02:31:30;94380.47;;;4.56;80.96
8334;BME280;4204;43.004;23.052;2024-02-21T02:33:55;94382.38;;;4.54;81.69
8334;BME280;4204;43.004;23.052;2024-02-21T02:36:21;94391.13;;;4.52;81.34
8334;BME280;4204;43.004;23.052;2024-02-21T02:38:46;94383.78;;;4.49;82.58
8334;BME280;4204;43.004;23.052;2024-02-21T02:41:12;94382.03;;;4.49;81.91
8334;BME280;4204;43.004;23.052;2024-02-21T02:43:37;94389.53;;;4.51;82.39
8334;BME280;4204;43.004;23.052;2024-02-21T02:46:03;94388.09;;;4.48;81.50
8334;BME280;4204;43.004;23.052;2024-02-21T02:48:29;94388.75;;;4.50;81.58
8334;BME280;4204;43.004;23.052;2024-02-21T02:50:54;94391.44;;;4.49;82.44
8334;BME280;4204;43.004;23.052;2024-02-21T02:53:20;94390.00;;;4.46;82.05
8334;BME280;4204;43.004;23.052;2024-02-21T02:55:45;94385.69;;;4.46;82.18
8334;BME280;4204;43.004;23.052;2024-02-21T02:58:11;94387.13;;;4.49;82.21
8334;BME280;4204;43.004;23.052;2024-02-21T03:00:36;94385.38;;;4.50;82.45
8334;BME280;4204;43.004;23.052;2024-02-21T03:03:02;94382.53;;;4.53;82.10
8334;BME280;4204;43.004;23.052;2024-02-21T03:05:31;94383.03;;;4.56;81.58
8334;BME280;4204;43.004;23.052;2024-02-21T03:07:56;94387.47;;;4.54;81.33
8334;BME280;4204;43.004;23.052;2024-02-21T03:10:21;94381.72;;;4.52;82.10
8334;BME280;4204;43.004;23.052;2024-02-21T03:12:47;94385.88;;;4.53;81.78
8334;BME280;4204;43.004;23.052;2024-02-21T03:15:13;94399.44;;;4.54;82.27
8334;BME280;4204;43.004;23.052;2024-02-21T03:17:39;94395.59;;;4.50;82.34
8334;BME280;4204;43.004;23.052;2024-02-21T03:20:05;94390.34;;;4.51;82.24
8334;BME280;4204;43.004;23.052;2024-02-21T03:22:33;94403.09;;;4.51;81.51
8334;BME280;4204;43.004;23.052;2024-02-21T03:24:59;94407.72;;;4.47;82.16
8334;BME280;4204;43.004;23.052;2024-02-21T03:27:24;94411.06;;;4.48;81.90
8334;BME280;4204;43.004;23.052;2024-02-21T03:29:49;94376.66;;;4.34;82.75
8334;BME280;4204;43.004;23.052;2024-02-21T03:32:15;94405.50;;;4.53;81.72
8334;BME280;4204;43.004;23.052;2024-02-21T03:34:40;94399.75;;;4.51;81.95
8334;BME280;4204;43.004;23.052;2024-02-21T03:37:05;94399.75;;;4.51;82.66
8334;BME280;4204;43.004;23.052;2024-02-21T03:39:31;94415.06;;;4.51;82.29
8334;BME280;4204;43.004;23.052;2024-02-21T03:42:00;94408.22;;;4.51;82.46
8334;BME280;4204;43.004;23.052;2024-02-21T03:44:32;94407.03;;;4.45;82.04
8334;BME280;4204;43.004;23.052;2024-02-21T03:47:01;94409.47;;;4.47;83.55
8334;BME280;4204;43.004;23.052;2024-02-21T03:49:26;94414.78;;;4.54;82.16
8334;BME280;4204;43.004;23.052;2024-02-21T03:51:52;94407.09;;;4.54;82.77
8334;BME280;4204;43.004;23.052;2024-02-21T03:54:17;94404.06;;;4.50;82.28
8334;BME280;4204;43.004;23.052;2024-02-21T03:56:43;94406.31;;;4.53;82.18
8334;BME280;4204;43.004;23.052;2024-02-21T03:59:08;94398.94;;;4.50;82.63
8334;BME280;4204;43.004;23.052;2024-02-21T04:01:34;94418.28;;;4.53;82.69
8334;BME280;4204;43.004;23.052;2024-02-21T04:04:00;94412.03;;;4.47;81.80
8334;BME280;4204;43.004;23.052;2024-02-21T04:06:26;94401.13;;;4.45;82.64
8334;BME280;4204;43.004;23.052;2024-02-21T04:08:51;94405.16;;;4.47;82.21
8334;BME280;4204;43.004;23.052;2024-02-21T04:11:17;94403.69;;;4.45;81.76
8334;BME280;4204;43.004;23.052;2024-02-21T04:13:44;94420.47;;;4.47;81.71
8334;BME280;4204;43.004;23.052;2024-02-21T04:16:10;94418.56;;;4.50;82.71
8334;BME280;4204;43.004;23.052;2024-02-21T04:18:35;94416.66;;;4.52;82.68
8334;BME280;4204;43.004;23.052;2024-02-21T04:21:00;94414.56;;;4.47;82.99
8334;BME280;4204;43.004;23.052;2024-02-21T04:23:26;94418.88;;;4.46;82.06
8334;BME280;4204;43.004;23.052;2024-02-21T04:25:51;94409.88;;;4.42;82.72
8334;BME280;4204;43.004;23.052;2024-02-21T04:28:17;94415.66;;;4.44;82.04
8334;BME280;4204;43.004;23.052;2024-02-21T04:30:43;94412.75;;;4.39;82.79
8334;BME280;4204;43.004;23.052;2024-02-21T04:33:08;94420.75;;;4.44;82.45
8334;BME280;4204;43.004;23.052;2024-02-21T04:35:36;94432.94;;;4.51;82.23
8334;BME280;4204;43.004;23.052;2024-02-21T04:38:01;94429.28;;;4.53;81.48
8334;BME280;4204;43.004;23.052;2024-02-21T04:40:26;94429.13;;;4.55;81.58
8334;BME280;4204;43.004;23.052;2024-02-21T04:42:52;94422.88;;;4.49;81.85
8334;BME280;4204;43.004;23.052;2024-02-21T04:45:17;94425.78;;;4.54;81.63
8334;BME280;4204;43.004;23.052;2024-02-21T04:47:43;94425.59;;;4.47;82.31
8334;BME280;4204;43.004;23.052;2024-02-21T04:50:09;94422.66;;;4.42;82.39
8334;BME280;4204;43.004;23.052;2024-02-21T04:52:35;94429.09;;;4.46;81.99
8334;BME280;4204;43.004;23.052;2024-02-21T04:55:00;94432.00;;;4.52;82.23
8334;BME280;4204;43.004;23.052;2024-02-21T04:57:26;94439.66;;;4.52;82.23
8334;BME280;4204;43.004;23.052;2024-02-21T04:59:51;94433.09;;;4.49;81.64
8334;BME280;4204;43.004;23.052;2024-02-21T05:02:17;94428.28;;;4.46;81.82
8334;BME280;4204;43.004;23.052;2024-02-21T05:04:44;94428.28;;;4.46;81.81
8334;BME280;4204;43.004;23.052;2024-02-21T05:07:10;94428.22;;;4.38;82.53
8334;BME280;4204;43.004;23.052;2024-02-21T05:09:37;94424.22;;;4.35;81.97
8334;BME280;4204;43.004;23.052;2024-02-21T05:12:03;94423.56;;;4.33;82.26
8334;BME280;4204;43.004;23.052;2024-02-21T05:14:28;94430.75;;;4.38;81.92
8334;BME280;4204;43.004;23.052;2024-02-21T05:16:53;94430.31;;;4.42;81.48
8334;BME280;4204;43.004;23.052;2024-02-21T05:19:19;94424.56;;;4.40;81.90
8334;BME280;4204;43.004;23.052;2024-02-21T05:21:45;94430.63;;;4.39;81.64
8334;BME280;4204;43.004;23.052;2024-02-21T05:24:10;94432.88;;;4.42;82.43
8334;BME280;4204;43.004;23.052;2024-02-21T05:26:36;94431.13;;;4.43;82.12
8334;BME280;4204;43.004;23.052;2024-02-21T05:29:01;94432.06;;;4.42;81.70
8334;BME280;4204;43.004;23.052;2024-02-21T05:31:43;94431.41;;;4.40;81.50
8334;BME280;4204;43.004;23.052;2024-02-21T05:34:20;94445.25;;;4.11;78.85
8334;BME280;4204;43.004;23.052;2024-02-21T05:36:46;94438.22;;;3.88;79.81
8334;BME280;4204;43.004;23.052;2024-02-21T05:39:12;94448.00;;;3.92;81.01
8334;BME280;4204;43.004;23.052;2024-02-21T05:41:38;94442.69;;;3.86;80.63
8334;BME280;4204;43.004;23.052;2024-02-21T05:44:03;94432.91;;;3.63;81.58
8334;BME280;4204;43.004;23.052;2024-02-21T05:46:29;94439.97;;;3.51;82.21
8334;BME280;4204;43.004;23.052;2024-02-21T05:48:54;94449.72;;;3.56;82.55
8334;BME280;4204;43.004;23.052;2024-02-21T05:51:20;94449.34;;;3.51;81.76
8334;BME280;4204;43.004;23.052;2024-02-21T05:53:45;94452.28;;;3.56;82.67
8334;BME280;4204;43.004;23.052;2024-02-21T05:56:11;94465.69;;;3.58;82.32
8334;BME280;4204;43.004;23.052;2024-02-21T05:58:37;94453.56;;;3.42;83.82
8334;BME280;4204;43.004;23.052;2024-02-21T06:01:02;94463.25;;;3.39;83.80
8334;BME280;4204;43.004;23.052;2024-02-21T06:03:29;94465.44;;;3.51;83.43
8334;BME280;4204;43.004;23.052;2024-02-21T06:05:54;94456.44;;;3.57;84.10
8334;BME280;4204;43.004;23.052;2024-02-21T06:08:20;94468.06;;;3.60;83.76
8334;BME280;4204;43.004;23.052;2024-02-21T06:10:45;94465.59;;;3.68;83.36
8334;BME280;4204;43.004;23.052;2024-02-21T06:13:11;94460.94;;;3.63;82.17
8334;BME280;4204;43.004;23.052;2024-02-21T06:15:36;94469.53;;;3.62;83.25
8334;BME280;4204;43.004;23.052;2024-02-21T06:18:02;94473.69;;;3.63;83.86
8334;BME280;4204;43.004;23.052;2024-02-21T06:20:27;94471.44;;;3.60;83.13
8334;BME280;4204;43.004;23.052;2024-02-21T06:22:53;94479.38;;;3.57;84.14
8334;BME280;4204;43.004;23.052;2024-02-21T06:25:19;94489.84;;;3.54;83.86
8334;BME280;4204;43.004;23.052;2024-02-21T06:27:44;94479.00;;;3.52;84.63
8334;BME280;4204;43.004;23.052;2024-02-21T06:30:10;94482.56;;;3.59;84.07
8334;BME280;4204;43.004;23.052;2024-02-21T06:32:36;94496.63;;;3.63;83.30
8334;BME280;4204;43.004;23.052;2024-02-21T06:35:01;94493.72;;;3.58;84.60
8334;BME280;4204;43.004;23.052;2024-02-21T06:37:29;94483.22;;;3.61;84.21
8334;BME280;4204;43.004;23.052;2024-02-21T06:39:55;94490.16;;;3.69;84.35
8334;BME280;4204;43.004;23.052;2024-02-21T06:42:20;94486.16;;;3.66;84.94
8334;BME280;4204;43.004;23.052;2024-02-21T06:44:46;94491.75;;;3.70;85.01
8334;BME280;4204;43.004;23.052;2024-02-21T06:47:12;94491.72;;;3.79;84.50
8334;BME280;4204;43.004;23.052;2024-02-21T06:49:37;94494.47;;;3.86;84.57
8334;BME280;4204;43.004;23.052;2024-02-21T06:52:04;94487.19;;;3.91;83.61
8334;BME280;4204;43.004;23.052;2024-02-21T06:54:30;94488.34;;;3.97;83.60
8334;BME280;4204;43.004;23.052;2024-02-21T06:56:56;94488.28;;;4.06;83.27
8334;BME280;4204;43.004;23.052;2024-02-21T06:59:21;94492.28;;;4.09;83.84
8334;BME280;4204;43.004;23.052;2024-02-21T07:01:53;94496.78;;;4.15;83.96
8334;BME280;4204;43.004;23.052;2024-02-21T07:04:19;94487.84;;;4.11;84.26
8334;BME280;4204;43.004;23.052;2024-02-21T07:06:45;94484.19;;;4.13;83.92
8334;BME280;4204;43.004;23.052;2024-02-21T07:09:11;94487.59;;;4.22;84.33
8334;BME280;4204;43.004;23.052;2024-02-21T07:11:36;94490.34;;;4.29;84.84
8334;BME280;4204;43.004;23.052;2024-02-21T07:14:01;94489.13;;;4.33;84.50
8334;BME280;4204;43.004;23.052;2024-02-21T07:16:27;94495.81;;;4.34;84.25
8334;BME280;4204;43.004;23.052;2024-02-21T07:18:54;94490.56;;;4.35;84.34
8334;BME280;4204;43.004;23.052;2024-02-21T07:21:20;94490.34;;;4.46;84.38
8334;BME280;4204;43.004;23.052;2024-02-21T07:23:45;94498.50;;;4.50;84.99
8334;BME280;4204;43.004;23.052;2024-02-21T07:26:10;94493.41;;;4.50;84.42
8334;BME280;4204;43.004;23.052;2024-02-21T07:28:36;94491.84;;;4.57;84.79
8334;BME280;4204;43.004;23.052;2024-02-21T07:31:02;94495.34;;;4.56;84.55
8334;BME280;4204;43.004;23.052;2024-02-21T07:33:27;94492.97;;;4.55;84.29
8334;BME280;4204;43.004;23.052;2024-02-21T07:35:52;94490.91;;;4.58;83.44
8334;BME280;4204;43.004;23.052;2024-02-21T07:38:18;94491.41;;;4.62;84.28
8334;BME280;4204;43.004;23.052;2024-02-21T07:40:46;94483.28;;;4.66;84.01
8334;BME280;4204;43.004;23.052;2024-02-21T07:43:12;94486.34;;;4.70;84.33
8334;BME280;4204;43.004;23.052;2024-02-21T07:45:37;94489.84;;;4.69;83.69
8334;BME280;4204;43.004;23.052;2024-02-21T07:48:07;94481.53;;;4.67;84.30
8334;BME280;4204;43.004;23.052;2024-02-21T07:50:33;94481.44;;;4.76;83.60
8334;BME280;4204;43.004;23.052;2024-02-21T07:52:58;94487.69;;;4.82;83.37
8334;BME280;4204;43.004;23.052;2024-02-21T07:55:24;94491.53;;;4.86;84.13
8334;BME280;4204;43.004;23.052;2024-02-21T07:57:49;94486.44;;;4.86;83.85
8334;BME280;4204;43.004;23.052;2024-02-21T08:00:15;94488.06;;;4.95;83.75
8334;BME280;4204;43.004;23.052;2024-02-21T08:02:46;94481.84;;;4.98;83.74
8334;BME280;4204;43.004;23.052;2024-02-21T08:05:11;94487.16;;;5.04;84.03
8334;BME280;4204;43.004;23.052;2024-02-21T08:07:38;94493.41;;;5.10;82.98
8334;BME280;4204;43.004;23.052;2024-02-21T08:10:04;94481.13;;;5.14;82.97
8334;BME280;4204;43.004;23.052;2024-02-21T08:12:29;94482.88;;;5.13;82.91
8334;BME280;4204;43.004;23.052;2024-02-21T08:14:55;94478.91;;;5.19;82.78
8334;BME280;4204;43.004;23.052;2024-02-21T08:17:20;94490.44;;;5.23;82.51
8334;BME280;4204;43.004;23.052;2024-02-21T08:19:46;94480.88;;;5.25;83.58
8334;BME280;4204;43.004;23.052;2024-02-21T08:22:13;94491.91;;;5.33;82.89
8334;BME280;4204;43.004;23.052;2024-02-21T08:24:38;94482.19;;;5.37;82.76
8334;BME280;4204;43.004;23.052;2024-02-21T08:27:04;94486.19;;;5.39;81.32
8334;BME280;4204;43.004;23.052;2024-02-21T08:29:29;94487.78;;;5.40;81.97
8334;BME280;4204;43.004;23.052;2024-02-21T08:31:55;94478.06;;;5.44;81.61
8334;BME280;4204;43.004;23.052;2024-02-21T08:34:20;94488.13;;;5.46;81.50
8334;BME280;4204;43.004;23.052;2024-02-21T08:36:45;94483.50;;;5.49;82.00
8334;BME280;4204;43.004;23.052;2024-02-21T08:39:11;94488.00;;;5.55;80.53
8334;BME280;4204;43.004;23.052;2024-02-21T08:41:36;94483.34;;;5.59;80.67
8334;BME280;4204;43.004;23.052;2024-02-21T08:44:02;94480.97;;;5.57;80.44
8334;BME280;4204;43.004;23.052;2024-02-21T08:46:28;94485.78;;;5.68;81.05
8334;BME280;4204;43.004;23.052;2024-02-21T08:48:54;94484.19;;;5.75;79.69
8334;BME280;4204;43.004;23.052;2024-02-21T08:51:20;94488.19;;;5.78;79.86
8334;BME280;4204;43.004;23.052;2024-02-21T08:53:46;94480.69;;;5.77;79.32
8334;BME280;4204;43.004;23.052;2024-02-21T08:56:11;94485.16;;;5.83;77.34
8334;BME280;4204;43.004;23.052;2024-02-21T08:58:38;94487.91;;;5.89;78.24
8334;BME280;4204;43.004;23.052;2024-02-21T09:01:04;94487.00;;;5.98;79.17
8334;BME280;4204;43.004;23.052;2024-02-21T09:03:34;94480.59;;;6.02;79.36
8334;BME280;4204;43.004;23.052;2024-02-21T09:05:59;94487.31;;;6.03;79.11
8334;BME280;4204;43.004;23.052;2024-02-21T09:08:26;94487.47;;;6.10;77.99
8334;BME280;4204;43.004;23.052;2024-02-21T09:10:51;94485.56;;;6.20;77.87
8334;BME280;4204;43.004;23.052;2024-02-21T09:13:17;94487.97;;;6.30;77.99
8334;BME280;4204;43.004;23.052;2024-02-21T09:15:42;94480.59;;;6.27;76.12
8334;BME280;4204;43.004;23.052;2024-02-21T09:18:08;94475.16;;;6.30;75.90
8334;BME280;4204;43.004;23.052;2024-02-21T09:20:33;94479.47;;;6.37;76.32
8334;BME280;4204;43.004;23.052;2024-02-21T09:22:59;94477.06;;;6.36;75.20
8334;BME280;4204;43.004;23.052;2024-02-21T09:25:24;94476.09;;;6.45;75.62
8334;BME280;4204;43.004;23.052;2024-02-21T09:27:50;94471.47;;;6.49;74.19
8334;BME280;4204;43.004;23.052;2024-02-21T09:30:17;94474.66;;;6.51;74.70
8334;BME280;4204;43.004;23.052;2024-02-21T09:32:42;94482.97;;;6.61;74.16
8334;BME280;4204;43.004;23.052;2024-02-21T09:35:08;94468.22;;;6.63;74.18
8334;BME280;4204;43.004;23.052;2024-02-21T09:37:33;94468.56;;;6.76;75.64
8334;BME280;4204;43.004;23.052;2024-02-21T09:39:59;94467.25;;;6.80;77.29
8334;BME280;4204;43.004;23.052;2024-02-21T09:42:34;94460.53;;;6.79;76.36
8334;BME280;4204;43.004;23.052;2024-02-21T09:45:03;94481.81;;;6.88;76.41
8334;BME280;4204;43.004;23.052;2024-02-21T09:47:47;94469.78;;;6.96;75.66
8334;BME280;4204;43.004;23.052;2024-02-21T09:50:16;94476.31;;;7.07;75.69
8334;BME280;4204;43.004;23.052;2024-02-21T09:52:43;94483.34;;;7.05;74.61
8334;BME280;4204;43.004;23.052;2024-02-21T09:55:09;94466.69;;;7.09;74.90
8334;BME280;4204;43.004;23.052;2024-02-21T09:57:37;94478.19;;;7.13;73.55
8334;BME280;4204;43.004;23.052;2024-02-21T10:00:04;94470.19;;;7.16;70.40
8334;BME280;4204;43.004;23.052;2024-02-21T10:02:33;94463.28;;;7.17;70.75
8334;BME280;4204;43.004;23.052;2024-02-21T10:04:58;94473.19;;;7.28;71.61
8334;BME280;4204;43.004;23.052;2024-02-21T10:07:24;94475.25;;;7.32;70.05
8334;BME280;4204;43.004;23.052;2024-02-21T10:10:03;94468.38;;;7.25;68.55
8334;BME280;4204;43.004;23.052;2024-02-21T10:12:28;94465.81;;;7.25;69.75
8334;BME280;4204;43.004;23.052;2024-02-21T10:15:04;94459.25;;;7.22;67.83
8334;BME280;4204;43.004;23.052;2024-02-21T10:17:30;94464.88;;;7.18;69.80
8334;BME280;4204;43.004;23.052;2024-02-21T10:20:02;94469.44;;;7.39;67.95
8334;BME280;4204;43.004;23.052;2024-02-21T10:22:31;94460.13;;;7.46;69.70
8334;BME280;4204;43.004;23.052;2024-02-21T10:25:09;94463.16;;;7.49;67.74
8334;BME280;4204;43.004;23.052;2024-02-21T10:27:36;94453.69;;;7.50;68.71
8334;BME280;4204;43.004;23.052;2024-02-21T10:30:02;94450.00;;;7.52;69.23
8334;BME280;4204;43.004;23.052;2024-02-21T10:32:28;94449.78;;;7.62;70.09
8334;BME280;4204;43.004;23.052;2024-02-21T10:35:03;94444.31;;;7.65;71.16
8334;BME280;4204;43.004;23.052;2024-02-21T10:37:30;94438.63;;;7.78;71.76
8334;BME280;4204;43.004;23.052;2024-02-21T10:39:57;94434.06;;;7.88;68.69
8334;BME280;4204;43.004;23.052;2024-02-21T10:42:22;94430.50;;;7.89;68.26
8334;BME280;4204;43.004;23.052;2024-02-21T10:44:51;94430.63;;;7.95;69.23
8334;BME280;4204;43.004;23.052;2024-02-21T10:47:17;94437.00;;;8.00;67.35
8334;BME280;4204;43.004;23.052;2024-02-21T10:49:49;94424.19;;;8.00;69.20
8334;BME280;4204;43.004;23.052;2024-02-21T10:52:31;94423.31;;;8.07;68.30
8334;BME280;4204;43.004;23.052;2024-02-21T10:55:04;94409.13;;;8.19;68.68
8334;BME280;4204;43.004;23.052;2024-02-21T10:57:34;94403.44;;;8.24;68.24
8334;BME280;4204;43.004;23.052;2024-02-21T11:00:00;94411.09;;;8.32;65.79
8334;BME280;4204;43.004;23.052;2024-02-21T11:02:28;94418.16;;;8.30;64.95
8334;BME280;4204;43.004;23.052;2024-02-21T11:04:57;94401.41;;;8.19;64.63
8334;BME280;4204;43.004;23.052;2024-02-21T11:07:23;94411.19;;;8.16;64.87
8334;BME280;4204;43.004;23.052;2024-02-21T11:09:53;94421.38;;;8.09;66.30
8334;BME280;4204;43.004;23.052;2024-02-21T11:12:21;94419.66;;;8.02;66.88
8334;BME280;4204;43.004;23.052;2024-02-21T11:14:47;94418.94;;;7.93;66.90
8334;BME280;4204;43.004;23.052;2024-02-21T11:17:17;94420.59;;;7.86;67.14
8334;BME280;4204;43.004;23.052;2024-02-21T11:19:43;94425.94;;;7.76;66.71
8334;BME280;4204;43.004;23.052;2024-02-21T11:22:16;94423.03;;;7.56;67.73
8334;BME280;4204;43.004;23.052;2024-02-21T11:24:42;94418.41;;;7.52;67.61
8334;BME280;4204;43.004;23.052;2024-02-21T11:27:20;94417.16;;;7.48;68.13
8334;BME280;4204;43.004;23.052;2024-02-21T11:29:48;94418.94;;;7.47;67.94
8334;BME280;4204;43.004;23.052;2024-02-21T11:32:18;94410.78;;;7.44;68.62
8334;BME280;4204;43.004;23.052;2024-02-21T11:34:58;94415.75;;;7.37;68.65
8334;BME280;4204;43.004;23.052;2024-02-21T11:37:34;94427.47;;;7.31;68.95
8334;BME280;4204;43.004;23.052;2024-02-21T11:40:02;94415.50;;;7.24;69.17
8334;BME280;4204;43.004;23.052;2024-02-21T11:42:29;94416.63;;;7.21;68.88
8334;BME280;4204;43.004;23.052;2024-02-21T11:44:55;94428.81;;;7.19;69.18
8334;BME280;4204;43.004;23.052;2024-02-21T11:47:24;94418.72;;;7.18;70.42
8334;BME280;4204;43.004;23.052;2024-02-21T11:49:50;94414.91;;;7.14;70.42
8334;BME280;4204;43.004;23.052;2024-02-21T11:52:21;94404.81;;;7.12;73.25
8334;BME280;4204;43.004;23.052;2024-02-21T11:54:48;94413.97;;;7.07;72.80
8334;BME280;4204;43.004;23.052;2024-02-21T11:57:13;94413.97;;;7.07;72.14
8334;BME280;4204;43.004;23.052;2024-02-21T11:59:40;94403.44;;;7.01;74.08
8334;BME280;4204;43.004;23.052;2024-02-21T12:02:06;94405.53;;;6.98;74.87
8334;BME280;4204;43.004;23.052;2024-02-21T12:04:32;94398.72;;;6.82;74.40
8334;BME280;4204;43.004;23.052;2024-02-21T12:06:58;94403.22;;;6.72;75.54
8334;BME280;4204;43.004;23.052;2024-02-21T12:09:24;94398.75;;;6.58;75.44
8334;BME280;4204;43.004;23.052;2024-02-21T12:12:04;94394.31;;;6.44;76.30
8334;BME280;4204;43.004;23.052;2024-02-21T12:14:31;94390.78;;;6.53;76.20
8334;BME280;4204;43.004;23.052;2024-02-21T12:16:58;94385.97;;;6.58;75.92
8334;BME280;4204;43.004;23.052;2024-02-21T12:19:24;94389.44;;;6.65;74.94
8334;BME280;4204;43.004;23.052;2024-02-21T12:21:49;94390.41;;;6.72;73.55
8334;BME280;4204;43.004;23.052;2024-02-21T12:24:17;94383.38;;;6.74;73.63
8334;BME280;4204;43.004;23.052;2024-02-21T12:26:42;94387.53;;;6.75;72.47
8334;BME280;4204;43.004;23.052;2024-02-21T12:29:08;94388.03;;;6.71;73.72
8334;BME280;4204;43.004;23.052;2024-02-21T12:31:37;94384.16;;;6.75;72.87
8334;BME280;4204;43.004;23.052;2024-02-21T12:34:03;94379.03;;;6.75;72.75
8334;BME280;4204;43.004;23.052;2024-02-21T12:36:32;94384.50;;;6.72;72.59
8334;BME280;4204;43.004;23.052;2024-02-21T12:38:58;94373.13;;;6.74;71.91
8334;BME280;4204;43.004;23.052;2024-02-21T12:41:24;94375.03;;;6.72;73.06
8334;BME280;4204;43.004;23.052;2024-02-21T12:43:52;94376.00;;;6.71;72.28
8334;BME280;4204;43.004;23.052;2024-02-21T12:46:17;94373.91;;;6.75;72.63
8334;BME280;4204;43.004;23.052;2024-02-21T12:48:43;94368.63;;;6.76;72.58
8334;BME280;4204;43.004;23.052;2024-02-21T12:51:08;94368.28;;;6.79;71.05
8334;BME280;4204;43.004;23.052;2024-02-21T12:53:33;94364.75;;;6.80;72.88
8334;BME280;4204;43.004;23.052;2024-02-21T12:56:00;94369.72;;;6.82;73.11
8334;BME280;4204;43.004;23.052;2024-02-21T12:58:25;94359.00;;;6.78;71.44
8334;BME280;4204;43.004;23.052;2024-02-21T13:00:50;94362.53;;;6.77;71.13
8334;BME280;4204;43.004;23.052;2024-02-21T13:03:16;94365.59;;;6.73;72.18
8334;BME280;4204;43.004;23.052;2024-02-21T13:05:41;94365.91;;;6.78;73.41
8334;BME280;4204;43.004;23.052;2024-02-21T13:08:08;94361.88;;;6.83;72.12
8334;BME280;4204;43.004;23.052;2024-02-21T13:10:34;94350.50;;;6.86;72.11
8334;BME280;4204;43.004;23.052;2024-02-21T13:13:02;94349.19;;;6.90;72.25
8334;BME280;4204;43.004;23.052;2024-02-21T13:15:28;94344.53;;;6.93;72.83
8334;BME280;4204;43.004;23.052;2024-02-21T13:17:56;94334.72;;;6.97;73.51